createdAt,value
2022-11-10T00:00:59.882Z,101545.59
2022-11-10T00:02:00.702Z,101545.59
2022-11-10T00:03:00.955Z,101546.05
2022-11-10T00:04:01.413Z,101546.81
2022-11-10T00:05:00.785Z,101546.97
2022-11-10T00:06:02.418Z,101547.73
2022-11-10T00:07:01.507Z,101548.75
2022-11-10T00:08:01.790Z,101548.83
2022-11-10T00:08:11.423Z,101554.91
2022-11-10T00:09:11.939Z,101554.66
2022-11-10T00:10:12.375Z,101554.44
2022-11-10T00:11:14.136Z,101554.44
2022-11-10T00:12:14.404Z,101554.52
2022-11-10T00:13:14.500Z,101554.44
2022-11-10T00:14:14.852Z,101554.52
2022-11-10T00:15:15.304Z,101554.72
2022-11-10T00:16:16.184Z,101554.84
2022-11-10T00:17:16.612Z,101555.42
2022-11-10T00:18:16.947Z,101556.14
2022-11-10T00:19:17.483Z,101556.76
2022-11-10T00:20:16.637Z,101557.43
2022-11-10T00:21:17.702Z,101557.80
2022-11-10T00:22:16.755Z,101558.64
2022-11-10T00:23:18.113Z,101559.35
2022-11-10T00:24:18.639Z,101560.20
2022-11-10T00:25:18.655Z,101561.41
2022-11-10T00:26:18.938Z,101562.59
2022-11-10T00:26:28.573Z,101586.48
2022-11-10T00:27:29.719Z,101586.14
2022-11-10T00:28:30.333Z,101585.72
2022-11-10T00:29:30.564Z,101585.63
2022-11-10T00:30:31.488Z,101585.80
2022-11-10T00:31:32.038Z,101586.31
2022-11-10T00:32:31.493Z,101586.98
2022-11-10T00:33:33.040Z,101587.23
2022-11-10T00:34:33.570Z,101588.08
2022-11-10T00:35:33.381Z,101589.26
2022-11-10T00:36:34.780Z,101589.94
2022-11-10T00:37:35.067Z,101590.22
2022-11-10T00:38:34.620Z,101590.98
2022-11-10T00:39:36.116Z,101592.41
2022-11-10T00:40:36.427Z,101593.17
2022-11-10T00:41:37.228Z,101594.36
2022-11-10T00:42:37.633Z,101595.45
2022-11-10T00:43:38.365Z,101596.97
2022-11-10T00:44:38.476Z,101597.82
2022-11-10T00:45:38.767Z,101599.00
2022-11-10T00:45:48.429Z,101618.39
2022-11-10T00:46:48.495Z,101617.72
2022-11-10T00:47:49.100Z,101616.37
2022-11-10T00:48:49.242Z,101616.03
2022-11-10T00:49:49.875Z,101616.37
2022-11-10T00:50:49.769Z,101618.22
2022-11-10T00:51:50.661Z,101619.09
2022-11-10T00:52:51.670Z,101619.94
2022-11-10T00:53:52.633Z,101620.48
2022-11-10T00:54:53.070Z,101621.66
2022-11-10T00:55:53.272Z,101622.11
2022-11-10T00:56:53.955Z,101622.48
2022-11-10T00:57:54.453Z,101623.09
2022-11-10T00:58:54.715Z,101623.72
2022-11-10T00:59:55.366Z,101624.51
2022-11-10T01:00:55.486Z,101625.60
2022-11-10T01:01:55.434Z,101626.31
2022-11-10T01:02:56.332Z,101627.04
2022-11-10T01:03:58.291Z,101628.00
2022-11-10T01:04:58.730Z,101628.70
2022-11-10T01:05:58.625Z,101629.91
2022-11-10T01:06:07.751Z,101651.47
2022-11-10T01:07:09.037Z,101651.30
2022-11-10T01:08:08.793Z,101651.05
2022-11-10T01:09:09.970Z,101650.23
2022-11-10T01:10:10.561Z,101650.31
2022-11-10T01:11:10.622Z,101649.89
2022-11-10T01:12:11.581Z,101650.01
2022-11-10T01:13:12.503Z,101650.26
2022-11-10T01:14:11.684Z,101650.26
2022-11-10T01:15:11.904Z,101650.03
2022-11-10T01:16:13.836Z,101649.98
2022-11-10T01:17:14.418Z,101650.09
2022-11-10T01:18:15.428Z,101650.59
2022-11-10T01:19:15.592Z,101650.28
2022-11-10T01:20:16.424Z,101650.12
2022-11-10T01:21:16.199Z,101650.56
2022-11-10T01:22:17.611Z,101651.07
2022-11-10T01:23:19.244Z,101651.61
2022-11-10T01:24:17.374Z,101652.53
2022-11-10T01:25:18.428Z,101652.65
2022-11-10T01:26:18.770Z,101652.77
2022-11-10T01:26:28.292Z,101663.21
2022-11-10T01:27:29.232Z,101663.05
2022-11-10T01:28:31.056Z,101662.90
2022-11-10T01:29:31.562Z,101663.44
2022-11-10T01:30:32.365Z,101663.86
2022-11-10T01:31:32.243Z,101663.86
2022-11-10T01:32:33.518Z,101664.02
2022-11-10T01:33:33.510Z,101664.31
2022-11-10T01:34:34.640Z,101664.64
2022-11-10T01:35:35.230Z,101664.98
2022-11-10T01:36:34.616Z,101665.41
2022-11-10T01:37:36.298Z,101665.99
2022-11-10T01:38:36.591Z,101666.58
2022-11-10T01:39:37.235Z,101667.20
2022-11-10T01:40:37.547Z,101667.63
2022-11-10T01:41:36.881Z,101668.30
2022-11-10T01:42:38.379Z,101668.80
2022-11-10T01:43:38.648Z,101669.31
2022-11-10T01:44:38.743Z,101669.73
2022-11-10T01:45:39.397Z,101670.23
2022-11-10T01:45:49.063Z,101679.37
2022-11-10T01:46:49.421Z,101679.37
2022-11-10T01:47:49.635Z,101678.95
2022-11-10T01:48:49.688Z,101679.11
2022-11-10T01:49:49.314Z,101679.20
2022-11-10T01:50:49.583Z,101679.56
2022-11-10T01:51:49.867Z,101680.57
2022-11-10T01:52:51.635Z,101681.58
2022-11-10T01:53:52.605Z,101682.20
2022-11-10T01:54:53.365Z,101683.22
2022-11-10T01:55:54.277Z,101683.80
2022-11-10T01:56:53.857Z,101684.76
2022-11-10T01:57:54.163Z,101685.60
2022-11-10T01:58:54.898Z,101686.39
2022-11-10T01:59:55.005Z,101686.66
2022-11-10T02:00:56.482Z,101686.95
2022-11-10T02:01:56.019Z,101686.86
2022-11-10T02:02:56.259Z,101686.72
2022-11-10T02:03:56.403Z,101686.58
2022-11-10T02:04:57.237Z,101686.12
2022-11-10T02:05:57.984Z,101685.53
2022-11-10T02:06:58.624Z,101685.05
2022-11-10T02:07:58.687Z,101684.48
2022-11-10T02:08:58.820Z,101684.48
2022-11-10T02:09:59.012Z,101683.50
2022-11-10T02:10:59.403Z,101683.36
2022-11-10T02:11:09.528Z,101687.69
2022-11-10T02:12:09.945Z,101687.36
2022-11-10T02:13:11.190Z,101687.52
2022-11-10T02:14:10.629Z,101687.10
2022-11-10T02:15:10.857Z,101687.47
2022-11-10T02:16:11.237Z,101687.75
2022-11-10T02:17:13.226Z,101687.74
2022-11-10T02:18:14.157Z,101687.86
2022-11-10T02:19:14.685Z,101686.70
2022-11-10T02:20:15.492Z,101687.23
2022-11-10T02:21:15.550Z,101686.80
2022-11-10T02:22:15.190Z,101686.75
2022-11-10T02:23:16.343Z,101686.52
2022-11-10T02:24:17.192Z,101686.05
2022-11-10T02:25:17.649Z,101686.55
2022-11-10T02:26:18.011Z,101686.74
2022-11-10T02:27:18.703Z,101687.58
2022-11-10T02:28:19.237Z,101688.34
2022-11-10T02:29:18.849Z,101689.04
2022-11-10T02:30:20.452Z,101690.25
2022-11-10T02:31:19.748Z,101690.83
2022-11-10T02:32:21.299Z,101691.53
2022-11-10T02:33:22.000Z,101692.71
2022-11-10T02:34:20.846Z,101693.08
2022-11-10T02:34:29.500Z,101698.98
2022-11-10T02:35:29.535Z,101699.16
2022-11-10T02:36:30.925Z,101698.81
2022-11-10T02:37:30.194Z,101698.98
2022-11-10T02:38:30.457Z,101699.58
2022-11-10T02:39:31.565Z,101699.91
2022-11-10T02:40:31.377Z,101700.16
2022-11-10T02:41:31.698Z,101700.28
2022-11-10T02:42:32.734Z,101700.02
2022-11-10T02:43:31.990Z,101699.71
2022-11-10T02:44:32.630Z,101700.38
2022-11-10T02:45:34.157Z,101701.25
2022-11-10T02:46:33.583Z,101702.09
2022-11-10T02:47:34.243Z,101703.36
2022-11-10T02:48:34.860Z,101704.14
2022-11-10T02:49:36.076Z,101705.26
2022-11-10T02:50:36.687Z,101705.37
2022-11-10T02:51:36.324Z,101706.15
2022-11-10T02:52:36.410Z,101707.27
2022-11-10T02:53:38.255Z,101707.30
2022-11-10T02:54:37.319Z,101707.83
2022-11-10T02:55:39.180Z,101709.20
2022-11-10T02:56:40.057Z,101710.56
2022-11-10T02:56:51.678Z,101732.28
2022-11-10T02:57:52.629Z,101731.69
2022-11-10T02:58:54.253Z,101731.69
2022-11-10T02:59:53.456Z,101732.03
2022-11-10T03:00:54.461Z,101732.70
2022-11-10T03:01:54.620Z,101734.13
2022-11-10T03:02:56.468Z,101734.74
2022-11-10T03:03:56.744Z,101735.92
2022-11-10T03:04:57.292Z,101736.53
2022-11-10T03:05:58.236Z,101737.91
2022-11-10T03:06:58.476Z,101739.59
2022-11-10T03:07:57.481Z,101741.30
2022-11-10T03:08:57.864Z,101742.31
2022-11-10T03:09:58.271Z,101743.94
2022-11-10T03:10:58.625Z,101745.78
2022-11-10T03:12:00.207Z,101747.07
2022-11-10T03:13:00.614Z,101748.92
2022-11-10T03:14:01.869Z,101751.14
2022-11-10T03:14:59.976Z,101752.77
2022-11-10T03:16:00.112Z,101754.78
2022-11-10T03:17:00.890Z,101756.41
2022-11-10T03:18:02.642Z,101758.20
2022-11-10T03:19:02.204Z,101760.72
2022-11-10T03:20:03.934Z,101762.34
2022-11-10T03:20:13.148Z,101791.25
2022-11-10T03:21:13.731Z,101791.08
2022-11-10T03:22:16.629Z,101790.57
2022-11-10T03:23:14.789Z,101790.31
2022-11-10T03:24:15.637Z,101789.98
2022-11-10T03:25:15.797Z,101789.55
2022-11-10T03:26:16.538Z,101789.08
2022-11-10T03:27:17.995Z,101788.98
2022-11-10T03:28:18.659Z,101788.81
2022-11-10T03:29:19.019Z,101789.06
2022-11-10T03:30:19.519Z,101788.64
2022-11-10T03:31:19.063Z,101788.81
2022-11-10T03:32:19.648Z,101789.31
2022-11-10T03:33:20.437Z,101789.17
2022-11-10T03:34:20.279Z,101789.09
2022-11-10T03:35:20.927Z,101789.03
2022-11-10T03:36:21.995Z,101789.37
2022-11-10T03:37:21.057Z,101789.78
2022-11-10T03:38:21.682Z,101790.66
2022-11-10T03:39:22.665Z,101790.76
2022-11-10T03:40:22.729Z,101791.17
2022-11-10T03:41:23.669Z,101791.37
2022-11-10T03:42:23.957Z,101791.64
2022-11-10T03:43:24.655Z,101791.92
2022-11-10T03:43:32.875Z,101796.45
2022-11-10T03:44:34.840Z,101796.45
2022-11-10T03:45:35.354Z,101796.11
2022-11-10T03:46:35.761Z,101796.11
2022-11-10T03:47:34.971Z,101796.53
2022-11-10T03:48:35.491Z,101796.96
2022-11-10T03:49:36.955Z,101797.35
2022-11-10T03:50:36.543Z,101797.35
2022-11-10T03:51:38.448Z,101797.86
2022-11-10T03:52:38.231Z,101798.68
2022-11-10T03:53:38.913Z,101798.77
2022-11-10T03:54:40.100Z,101799.11
2022-11-10T03:55:39.753Z,101799.76
2022-11-10T03:56:39.979Z,101799.84
2022-11-10T03:57:40.324Z,101800.35
2022-11-10T03:58:41.583Z,101800.77
2022-11-10T03:59:41.588Z,101802.12
2022-11-10T04:00:41.421Z,101803.04
2022-11-10T04:01:42.429Z,101804.08
2022-11-10T04:02:42.796Z,101805.50
2022-11-10T04:03:48.829Z,101807.10
2022-11-10T04:04:43.405Z,101808.39
2022-11-10T04:05:44.524Z,101809.99
2022-11-10T04:06:45.066Z,101811.25
2022-11-10T04:06:53.757Z,101845.46
2022-11-10T04:07:54.416Z,101844.70
2022-11-10T04:08:55.232Z,101843.52
2022-11-10T04:09:56.509Z,101842.77
2022-11-10T04:10:56.253Z,101842.66
2022-11-10T04:11:57.226Z,101842.31
2022-11-10T04:12:58.848Z,101841.81
2022-11-10T04:13:58.969Z,101841.81
2022-11-10T04:14:59.203Z,101841.39
2022-11-10T04:16:00.145Z,101841.30
2022-11-10T04:17:00.183Z,101841.30
2022-11-10T04:17:59.265Z,101840.91
2022-11-10T04:18:59.583Z,101840.41
2022-11-10T04:20:00.562Z,101840.41
2022-11-10T04:21:01.308Z,101839.56
2022-11-10T04:22:01.816Z,101839.05
2022-11-10T04:23:03.028Z,101838.46
2022-11-10T04:24:02.910Z,101837.73
2022-11-10T04:25:03.685Z,101837.64
2022-11-10T04:26:04.599Z,101837.64
2022-11-10T04:27:05.854Z,101837.56
2022-11-10T04:28:05.951Z,101837.67
2022-11-10T04:29:05.918Z,101837.92
2022-11-10T04:30:06.848Z,101838.00
2022-11-10T04:31:07.340Z,101839.02
2022-11-10T04:31:16.741Z,101856.63
2022-11-10T04:32:17.915Z,101856.13
2022-11-10T04:33:18.253Z,101855.36
2022-11-10T04:34:18.446Z,101855.03
2022-11-10T04:35:18.167Z,101854.60
2022-11-10T04:36:18.715Z,101854.02
2022-11-10T04:37:20.142Z,101852.75
2022-11-10T04:38:20.511Z,101852.00
2022-11-10T04:39:20.251Z,101851.16
2022-11-10T04:40:21.323Z,101850.39
2022-11-10T04:41:21.710Z,101850.05
2022-11-10T04:42:22.234Z,101849.41
2022-11-10T04:43:21.844Z,101849.58
2022-11-10T04:44:21.985Z,101850.16
2022-11-10T04:45:22.317Z,101851.52
2022-11-10T04:46:23.250Z,101852.44
2022-11-10T04:47:24.872Z,101853.95
2022-11-10T04:48:24.222Z,101854.91
2022-11-10T04:49:24.975Z,101855.66
2022-11-10T04:50:26.381Z,101856.75
2022-11-10T04:51:26.477Z,101857.37
2022-11-10T04:52:26.254Z,101858.62
2022-11-10T04:53:26.918Z,101860.31
2022-11-10T04:53:35.544Z,101903.52
2022-11-10T04:54:36.734Z,101902.67
2022-11-10T04:55:37.189Z,101901.41
2022-11-10T04:56:37.564Z,101900.67
2022-11-10T04:57:36.769Z,101900.09
2022-11-10T04:58:37.214Z,101899.83
2022-11-10T04:59:38.740Z,101899.18
2022-11-10T05:00:39.623Z,101898.66
2022-11-10T05:01:39.135Z,101898.02
2022-11-10T05:02:39.965Z,101898.17
2022-11-10T05:03:40.622Z,101898.54
2022-11-10T05:04:40.956Z,101899.04
2022-11-10T05:05:40.799Z,101899.91
2022-11-10T05:06:41.097Z,101900.69
2022-11-10T05:07:41.706Z,101901.13
2022-11-10T05:08:43.187Z,101901.96
2022-11-10T05:09:42.578Z,101902.66
2022-11-10T05:10:43.233Z,101903.49
2022-11-10T05:11:43.357Z,101904.70
2022-11-10T05:12:45.096Z,101905.14
2022-11-10T05:13:45.098Z,101905.80
2022-11-10T05:14:45.708Z,101906.08
2022-11-10T05:15:46.543Z,101906.74
2022-11-10T05:16:45.869Z,101908.37
2022-11-10T05:16:55.317Z,101935.56
2022-11-10T05:17:55.644Z,101935.31
2022-11-10T05:18:57.459Z,101935.56
2022-11-10T05:19:58.132Z,101936.23
2022-11-10T05:20:57.594Z,101937.09
2022-11-10T05:21:58.387Z,101937.85
2022-11-10T05:22:59.021Z,101937.77
2022-11-10T05:24:00.221Z,101938.09
2022-11-10T05:24:59.707Z,101938.34
2022-11-10T05:26:01.479Z,101939.36
2022-11-10T05:27:00.564Z,101940.28
2022-11-10T05:28:01.936Z,101940.72
2022-11-10T05:29:00.937Z,101941.78
2022-11-10T05:30:01.413Z,101942.86
2022-11-10T05:31:02.297Z,101944.02
2022-11-10T05:32:03.747Z,101945.27
2022-11-10T05:33:03.897Z,101945.87
2022-11-10T05:34:03.302Z,101946.69
2022-11-10T05:35:03.895Z,101948.09
2022-11-10T05:36:04.390Z,101948.75
2022-11-10T05:37:05.452Z,101948.91
2022-11-10T05:38:06.285Z,101949.98
2022-11-10T05:39:05.491Z,101950.98
2022-11-10T05:40:06.068Z,101951.64
2022-11-10T05:41:06.482Z,101951.63
2022-11-10T05:42:07.969Z,101952.17
2022-11-10T05:42:16.569Z,101963.77
2022-11-10T05:43:17.465Z,101962.93
2022-11-10T05:44:19.082Z,101962.26
2022-11-10T05:45:18.286Z,101961.33
2022-11-10T05:46:18.643Z,101961.52
2022-11-10T05:47:19.004Z,101961.66
2022-11-10T05:48:20.712Z,101961.57
2022-11-10T05:49:21.145Z,101961.21
2022-11-10T05:50:21.588Z,101961.30
2022-11-10T05:51:21.764Z,101961.81
2022-11-10T05:52:22.122Z,101961.79
2022-11-10T05:53:22.407Z,101961.42
2022-11-10T05:54:22.517Z,101962.28
2022-11-10T05:55:23.169Z,101963.09
2022-11-10T05:56:23.246Z,101963.52
2022-11-10T05:57:24.357Z,101964.45
2022-11-10T05:58:24.577Z,101965.38
2022-11-10T05:59:23.811Z,101965.77
2022-11-10T06:00:24.664Z,101966.28
2022-11-10T06:01:25.093Z,101966.67
2022-11-10T06:02:25.367Z,101967.19
2022-11-10T06:03:26.453Z,101968.11
2022-11-10T06:04:25.999Z,101969.21
2022-11-10T06:05:30.948Z,101970.31
2022-11-10T06:06:27.122Z,101971.55
2022-11-10T06:07:28.125Z,101971.72
2022-11-10T06:07:38.208Z,101987.33
2022-11-10T06:08:39.723Z,101987.07
2022-11-10T06:09:40.394Z,101986.73
2022-11-10T06:10:39.828Z,101986.83
2022-11-10T06:11:40.132Z,101986.74
2022-11-10T06:12:40.131Z,101986.07
2022-11-10T06:13:40.775Z,101985.82
2022-11-10T06:14:42.319Z,101985.66
2022-11-10T06:15:43.906Z,101985.64
2022-11-10T06:16:42.237Z,101986.40
2022-11-10T06:17:43.992Z,101987.44
2022-11-10T06:18:43.099Z,101988.19
2022-11-10T06:19:43.416Z,101989.70
2022-11-10T06:20:44.240Z,101990.83
2022-11-10T06:21:45.212Z,101992.42
2022-11-10T06:22:46.344Z,101993.85
2022-11-10T06:23:47.227Z,101995.22
2022-11-10T06:24:47.225Z,101996.48
2022-11-10T06:25:48.042Z,101997.06
2022-11-10T06:26:48.285Z,101998.25
2022-11-10T06:27:48.246Z,101999.59
2022-11-10T06:28:49.558Z,102000.77
2022-11-10T06:29:50.335Z,102001.95
2022-11-10T06:30:50.093Z,102003.22
2022-11-10T06:31:50.351Z,102004.48
2022-11-10T06:32:51.991Z,102005.39
2022-11-10T06:33:00.622Z,102028.91
2022-11-10T06:34:02.298Z,102028.58
2022-11-10T06:35:01.880Z,102027.64
2022-11-10T06:36:02.443Z,102027.73
2022-11-10T06:37:03.257Z,102027.80
2022-11-10T06:38:04.099Z,102027.75
2022-11-10T06:39:04.279Z,102028.09
2022-11-10T06:40:05.783Z,102028.34
2022-11-10T06:41:05.318Z,102028.67
2022-11-10T06:42:05.870Z,102028.84
2022-11-10T06:43:06.306Z,102029.18
2022-11-10T06:44:07.588Z,102029.77
2022-11-10T06:45:07.415Z,102030.84
2022-11-10T06:46:07.872Z,102031.52
2022-11-10T06:47:08.127Z,102031.84
2022-11-10T06:48:09.386Z,102032.52
2022-11-10T06:49:10.300Z,102033.45
2022-11-10T06:50:09.661Z,102033.87
2022-11-10T06:51:10.060Z,102034.47
2022-11-10T06:52:12.025Z,102035.46
2022-11-10T06:53:11.591Z,102036.05
2022-11-10T06:54:12.259Z,102036.95
2022-11-10T06:55:13.367Z,102037.55
2022-11-10T06:56:12.918Z,102038.48
2022-11-10T06:57:13.345Z,102039.41
2022-11-10T06:57:29.506Z,102061.31
2022-11-10T06:58:31.066Z,102060.80
2022-11-10T06:59:30.382Z,102060.80
2022-11-10T07:00:30.553Z,102060.37
2022-11-10T07:01:31.706Z,102061.22
2022-11-10T07:02:31.483Z,102061.64
2022-11-10T07:03:33.348Z,102062.56
2022-11-10T07:04:33.526Z,102063.73
2022-11-10T07:05:34.186Z,102064.69
2022-11-10T07:06:34.804Z,102066.05
2022-11-10T07:07:34.750Z,102067.73
2022-11-10T07:08:36.742Z,102069.47
2022-11-10T07:09:36.388Z,102070.64
2022-11-10T07:10:37.226Z,102072.25
2022-11-10T07:11:37.615Z,102073.94
2022-11-10T07:12:39.539Z,102075.70
2022-11-10T07:13:39.474Z,102077.39
2022-11-10T07:14:39.698Z,102079.50
2022-11-10T07:15:39.750Z,102081.36
2022-11-10T07:16:41.506Z,102083.05
2022-11-10T07:17:40.558Z,102084.56
2022-11-10T07:18:41.623Z,102086.92
2022-11-10T07:19:42.480Z,102089.11
2022-11-10T07:19:51.137Z,102116.55
2022-11-10T07:20:52.535Z,102116.55
2022-11-10T07:21:53.371Z,102116.88
2022-11-10T07:22:52.550Z,102116.88
2022-11-10T07:23:53.312Z,102117.05
2022-11-10T07:24:53.894Z,102118.06
2022-11-10T07:25:54.153Z,102118.81
2022-11-10T07:26:54.881Z,102119.27
2022-11-10T07:27:55.283Z,102120.11
2022-11-10T07:28:56.062Z,102120.67
2022-11-10T07:29:56.910Z,102120.67
2022-11-10T07:30:59.472Z,102121.68
2022-11-10T07:31:58.106Z,102122.53
2022-11-10T07:32:59.033Z,102123.62
2022-11-10T07:33:59.219Z,102125.13
2022-11-10T07:35:00.841Z,102126.30
2022-11-10T07:36:01.588Z,102127.39
2022-11-10T07:37:00.942Z,102128.91
2022-11-10T07:38:01.424Z,102130.77
2022-11-10T07:39:02.492Z,102132.34
2022-11-10T07:40:02.608Z,102134.33
2022-11-10T07:41:03.367Z,102135.99
2022-11-10T07:42:03.549Z,102138.53
2022-11-10T07:43:04.930Z,102140.12
2022-11-10T07:44:04.268Z,102141.88
2022-11-10T07:44:13.360Z,102175.48
2022-11-10T07:45:14.237Z,102174.98
2022-11-10T07:46:16.035Z,102174.73
2022-11-10T07:47:15.227Z,102174.88
2022-11-10T07:48:15.640Z,102174.80
2022-11-10T07:49:16.927Z,102174.53
2022-11-10T07:50:16.208Z,102174.09
2022-11-10T07:51:18.052Z,102174.58
2022-11-10T07:52:17.239Z,102174.66
2022-11-10T07:53:18.730Z,102174.19
2022-11-10T07:54:19.717Z,102173.84
2022-11-10T07:55:18.716Z,102173.57
2022-11-10T07:56:19.064Z,102173.55
2022-11-10T07:57:19.948Z,102174.05
2022-11-10T07:58:20.120Z,102174.29
2022-11-10T07:59:21.536Z,102174.53
2022-11-10T08:00:21.527Z,102175.17
2022-11-10T08:01:21.823Z,102175.80
2022-11-10T08:02:21.860Z,102176.56
2022-11-10T08:03:23.218Z,102177.34
2022-11-10T08:04:23.664Z,102178.32
2022-11-10T08:05:24.996Z,102179.05
2022-11-10T08:06:25.416Z,102179.84
2022-11-10T08:07:25.142Z,102180.23
2022-11-10T08:08:25.424Z,102181.38
2022-11-10T08:08:34.128Z,102198.04
2022-11-10T08:09:35.935Z,102197.61
2022-11-10T08:10:36.192Z,102197.05
2022-11-10T08:11:36.522Z,102196.03
2022-11-10T08:12:35.783Z,102196.05
2022-11-10T08:13:36.592Z,102196.47
2022-11-10T08:14:37.080Z,102196.81
2022-11-10T08:15:38.356Z,102196.80
2022-11-10T08:16:38.619Z,102198.16
2022-11-10T08:17:39.247Z,102198.44
2022-11-10T08:18:40.130Z,102199.11
2022-11-10T08:19:40.718Z,102199.92
2022-11-10T08:20:39.897Z,102200.35
2022-11-10T08:21:44.520Z,102201.00
2022-11-10T08:22:41.630Z,102201.94
2022-11-10T08:23:42.646Z,102202.70
2022-11-10T08:24:43.288Z,102203.80
2022-11-10T08:25:42.912Z,102204.36
2022-11-10T08:26:43.748Z,102205.30
2022-11-10T08:27:44.403Z,102206.37
2022-11-10T08:28:45.884Z,102207.19
2022-11-10T08:29:45.610Z,102208.77
2022-11-10T08:30:45.763Z,102209.88
2022-11-10T08:30:54.895Z,102236.60
2022-11-10T08:31:56.048Z,102236.27
2022-11-10T08:32:55.737Z,102235.93
2022-11-10T08:33:56.976Z,102235.93
2022-11-10T08:34:56.341Z,102235.67
2022-11-10T08:35:56.340Z,102236.18
2022-11-10T08:36:56.823Z,102236.60
2022-11-10T08:37:57.211Z,102237.03
2022-11-10T08:38:58.313Z,102237.51
2022-11-10T08:39:57.478Z,102237.84
2022-11-10T08:40:59.629Z,102238.52
2022-11-10T08:41:58.100Z,102238.61
2022-11-10T08:42:58.363Z,102238.92
2022-11-10T08:43:59.561Z,102239.35
2022-11-10T08:44:58.706Z,102240.03
2022-11-10T08:46:00.231Z,102240.03
2022-11-10T08:47:00.276Z,102240.77
2022-11-10T08:47:59.500Z,102241.28
2022-11-10T08:49:00.237Z,102241.25
2022-11-10T08:50:01.528Z,102241.25
2022-11-10T08:51:00.997Z,102241.67
2022-11-10T08:52:02.369Z,102242.53
2022-11-10T08:53:01.936Z,102242.93
2022-11-10T08:53:10.600Z,102256.87
2022-11-10T08:54:11.491Z,102256.70
2022-11-10T08:55:12.699Z,102256.22
2022-11-10T08:56:12.646Z,102256.05
2022-11-10T08:57:13.563Z,102255.64
2022-11-10T08:58:13.517Z,102256.06
2022-11-10T08:59:13.883Z,102256.01
2022-11-10T09:00:15.104Z,102256.25
2022-11-10T09:01:15.917Z,102257.02
2022-11-10T09:02:16.267Z,102257.02
2022-11-10T09:03:16.746Z,102257.80
2022-11-10T09:04:17.738Z,102258.30
2022-11-10T09:05:17.310Z,102259.17
2022-11-10T09:06:17.394Z,102259.84
2022-11-10T09:07:18.075Z,102261.09
2022-11-10T09:08:18.265Z,102261.93
2022-11-10T09:09:19.292Z,102263.20
2022-11-10T09:10:19.221Z,102264.30
2022-11-10T09:11:19.996Z,102265.48
2022-11-10T09:12:20.614Z,102266.58
2022-11-10T09:13:26.096Z,102267.56
2022-11-10T09:14:21.912Z,102268.64
2022-11-10T09:15:23.875Z,102269.23
2022-11-10T09:16:24.602Z,102270.00
2022-11-10T09:17:23.606Z,102270.56
2022-11-10T09:18:24.405Z,102271.33
2022-11-10T09:18:34.032Z,102281.27
2022-11-10T09:19:33.178Z,102280.76
2022-11-10T09:20:33.741Z,102281.42
2022-11-10T09:21:33.858Z,102282.13
2022-11-10T09:22:34.675Z,102282.83
2022-11-10T09:23:35.083Z,102284.01
2022-11-10T09:24:36.884Z,102285.02
2022-11-10T09:25:36.920Z,102286.36
2022-11-10T09:26:37.717Z,102287.56
2022-11-10T09:27:36.771Z,102288.73
2022-11-10T09:28:37.076Z,102289.83
2022-11-10T09:29:38.954Z,102290.78
2022-11-10T09:30:38.532Z,102291.84
2022-11-10T09:31:38.639Z,102293.20
2022-11-10T09:32:39.639Z,102294.83
2022-11-10T09:33:39.771Z,102295.95
2022-11-10T09:34:41.283Z,102297.80
2022-11-10T09:35:40.393Z,102298.83
2022-11-10T09:36:40.605Z,102299.86
2022-11-10T09:37:41.792Z,102300.36
2022-11-10T09:38:41.631Z,102301.05
2022-11-10T09:39:42.794Z,102302.17
2022-11-10T09:40:43.470Z,102303.55
2022-11-10T09:40:52.123Z,102322.57
2022-11-10T09:41:52.602Z,102322.41
2022-11-10T09:42:53.560Z,102322.66
2022-11-10T09:43:53.969Z,102323.19
2022-11-10T09:44:54.899Z,102323.60
2022-11-10T09:45:54.999Z,102324.53
2022-11-10T09:46:55.582Z,102324.81
2022-11-10T09:47:58.056Z,102325.66
2022-11-10T09:48:56.305Z,102326.06
2022-11-10T09:49:57.570Z,102326.74
2022-11-10T09:50:58.549Z,102327.67
2022-11-10T09:51:59.331Z,102328.69
2022-11-10T09:52:58.306Z,102329.92
2022-11-10T09:53:58.704Z,102330.60
2022-11-10T09:54:59.300Z,102332.30
2022-11-10T09:56:00.728Z,102333.48
2022-11-10T09:57:01.713Z,102334.83
2022-11-10T09:58:01.237Z,102336.77
2022-11-10T09:59:01.661Z,102338.77
2022-11-10T10:00:03.384Z,102340.47
2022-11-10T10:01:03.032Z,102341.97
2022-11-10T10:02:03.704Z,102343.64
2022-11-10T10:03:04.173Z,102344.64
2022-11-10T10:04:04.402Z,102345.63
2022-11-10T10:04:15.546Z,102361.09
2022-11-10T10:05:17.511Z,102360.58
2022-11-10T10:06:18.164Z,102360.16
2022-11-10T10:07:17.622Z,102359.83
2022-11-10T10:08:18.136Z,102358.97
2022-11-10T10:09:18.968Z,102357.88
2022-11-10T10:10:19.597Z,102357.51
2022-11-10T10:11:20.328Z,102357.18
2022-11-10T10:12:21.750Z,102356.48
2022-11-10T10:13:22.233Z,102356.16
2022-11-10T10:14:21.575Z,102356.13
2022-11-10T10:15:25.540Z,102355.97
2022-11-10T10:16:22.906Z,102356.13
2022-11-10T10:17:26.944Z,102355.73
2022-11-10T10:18:24.965Z,102356.34
2022-11-10T10:19:24.721Z,102356.73
2022-11-10T10:20:25.016Z,102356.38
2022-11-10T10:21:25.075Z,102356.22
2022-11-10T10:22:25.335Z,102356.87
2022-11-10T10:23:46.729Z,102357.27
2022-11-10T10:24:26.371Z,102357.44
2022-11-10T10:25:26.383Z,102356.91
2022-11-10T10:26:26.769Z,102357.26
2022-11-10T10:27:27.605Z,102357.91
2022-11-10T10:28:27.808Z,102357.49
2022-11-10T10:29:33.133Z,102357.92
2022-11-10T10:30:29.814Z,102358.73
2022-11-10T10:31:30.381Z,102359.33
2022-11-10T10:31:45.280Z,102368.74
2022-11-10T10:32:45.376Z,102368.07
2022-11-10T10:33:46.082Z,102367.98
2022-11-10T10:34:47.701Z,102367.75
2022-11-10T10:35:50.021Z,102367.98
2022-11-10T10:36:47.281Z,102367.73
2022-11-10T10:37:47.355Z,102366.79
2022-11-10T10:38:48.231Z,102366.84
2022-11-10T10:39:48.864Z,102367.05
2022-11-10T10:40:49.011Z,102367.25
2022-11-10T10:41:50.027Z,102367.98
2022-11-10T10:42:50.511Z,102368.89
2022-11-10T10:43:51.012Z,102370.53
2022-11-10T10:44:51.309Z,102371.20
2022-11-10T10:45:51.607Z,102372.82
2022-11-10T10:46:51.635Z,102374.12
2022-11-10T10:47:53.133Z,102376.70
2022-11-10T10:49:08.272Z,102378.44
2022-11-10T10:49:53.018Z,102380.67
2022-11-10T10:50:53.135Z,102382.56
2022-11-10T10:51:54.757Z,102384.78
2022-11-10T10:52:55.676Z,102386.86
2022-11-10T10:53:54.809Z,102388.34
2022-11-10T10:54:55.984Z,102390.34
2022-11-10T10:55:55.097Z,102392.78
2022-11-10T10:56:57.439Z,102395.61
2022-11-10T10:57:56.686Z,102396.96
2022-11-10T10:58:12.314Z,102439.32
2022-11-10T10:59:14.224Z,102438.14
2022-11-10T11:00:15.158Z,102436.93
2022-11-10T11:01:15.771Z,102437.11
2022-11-10T11:02:14.778Z,102436.67
2022-11-10T11:03:15.139Z,102436.18
2022-11-10T11:04:15.836Z,102436.71
2022-11-10T11:05:16.663Z,102437.49
2022-11-10T11:06:17.846Z,102437.59